Mesquite, TX (75150)

3:07 PM CDT on August 04, 2015 (GMT -0500)
Palos Verdes Estates | | Change Station
CLOSE
Current Station
Personal Weather Station
Location: Mesquite, TX
Elevation: 540 ft
Nearby Weather Stations
Active Advisory: Flood Warning

Elev 540 ft 32.83 °N, 96.61 °W | Updated 11 seconds ago

Scattered Clouds
Scattered Clouds
100.0 °F
Feels Like 104 °F
N
2.0
Wind Variable Wind from SE
Gusts 3.0 mph

Today
High -- | Low -- °F
--% Chance of Precip.
Yesterday
High -- | Low -- °F
Precip. -- in
6:42 AM 8:22 PM
Waning Gibbous, 75% visible
Pressure 29.93 in
Visibility 10.0 miles
Clouds Scattered Clouds 5000 ft
Heat Index 104 °F
Dew Point 65 °F
Humidity 32%
Rainfall 0.00 in
Snow Depth Not available.
UV 9 out of 12
Pollen 4.90 out of 12
Air Quality Not available.
Flu Activity Not available.
METAR KHQZ 041950Z 17006G15KT 10SM SCT050 36/15 A2993

More Conditions Fewer Conditions

Pressure 29.93 in
Visibility 10.0 miles
Clouds Scattered Clouds 5000 ft
Heat Index 104 °F
Dew Point 65 °F
Humidity 32%
Rainfall 0.00 in
Snow Depth Not available.
UV 9 out of 12
Pollen 4.90 out of 12
Air Quality Not available.
Flu Activity Not available.
METAR KHQZ 041950Z 17006G15KT 10SM SCT050 36/15 A2993

More Conditions Fewer Conditions

10-Day Weather Forecast

×

Almanac

Astronomy

Aug. 04, 2015 Rise Set
Actual Time
Civil Twilight
Nautical Twilight
Astronomical Twilight
Moon
Length of Visible Light
Length of Day
Tomorrow will be .
, % of the Moon is Illuminated

Today's Extremes

State Highs State Lows

Community

WunderPhotos

Upload Photos

1,843,962 photos uploaded!

WunderBlogs® & News

Nearby

Air Quality

  Air Quality AQ Index Pollutant
Not available.

Snow Depth

Station Depth Elevation

Earthquake Activity

City Distance Mag. Time & Date
Minimum magnitude displayed is 2.5.

Coastal Water Temperatures

Place Temperature

Stations

Nearby Weather Stations

Station Location Temp. Windchill Dew Point Humidity Wind Precip. Elev Updated Type
                   
Flood Warning
Statement as of 8:27 AM CDT on August 04, 2015

The Flood Warning continues for
the Elm Fork Trinity River near Carrollton.
* At 0815 am Tuesday the stage was 8.07 feet.
* Flood stage is 8 feet.
* Minor flooding is occurring and minor flooding is forecast.
* Forecast... the river will continue near 8.1 feet for the next few
days.
* At 8 feet, minor flooding will occur downstream from the gage.


Lat... Lon 3300 9700 3287 9699 3287 9687 3300 9688